sensor_id;sensor_type;location;lat;lon;timestamp;pressure;altitude;pressure_sealevel;temperature;humidity
22241;BME280;11289;52.524;13.694;2023-12-22T00:00:02;97837.84;;;4.30;79.01
22241;BME280;11289;52.524;13.694;2023-12-22T00:02:28;97842.53;;;4.30;78.22
22241;BME280;11289;52.524;13.694;2023-12-22T00:04:54;97845.19;;;4.26;77.37
22241;BME280;11289;52.524;13.694;2023-12-22T00:07:20;97837.66;;;4.23;77.14
22241;BME280;11289;52.524;13.694;2023-12-22T00:09:46;97843.88;;;4.20;76.89
22241;BME280;11289;52.524;13.694;2023-12-22T00:12:12;97861.84;;;4.17;76.92
22241;BME280;11289;52.524;13.694;2023-12-22T00:14:38;97855.41;;;4.10;76.14
22241;BME280;11289;52.524;13.694;2023-12-22T00:17:06;97861.66;;;4.10;75.53
22241;BME280;11289;52.524;13.694;2023-12-22T00:19:32;97849.00;;;4.06;75.23
22241;BME280;11289;52.524;13.694;2023-12-22T00:21:58;97846.50;;;4.00;75.25
22241;BME280;11289;52.524;13.694;2023-12-22T00:24:24;97845.63;;;3.96;74.95
22241;BME280;11289;52.524;13.694;2023-12-22T00:26:50;97872.28;;;3.96;74.87
22241;BME280;11289;52.524;13.694;2023-12-22T00:29:16;97865.91;;;3.92;74.84
22241;BME280;11289;52.524;13.694;2023-12-22T00:31:42;97866.25;;;3.90;74.14
22241;BME280;11289;52.524;13.694;2023-12-22T00:34:08;97875.13;;;3.83;74.44
22241;BME280;11289;52.524;13.694;2023-12-22T00:36:34;97859.53;;;3.88;73.52
22241;BME280;11289;52.524;13.694;2023-12-22T00:39:00;97888.50;;;3.85;72.96
22241;BME280;11289;52.524;13.694;2023-12-22T00:41:26;97873.16;;;3.84;73.46
22241;BME280;11289;52.524;13.694;2023-12-22T00:43:52;97873.06;;;3.80;71.99
22241;BME280;11289;52.524;13.694;2023-12-22T00:46:18;97876.50;;;3.77;72.19
22241;BME280;11289;52.524;13.694;2023-12-22T00:48:45;97902.47;;;3.80;72.40
22241;BME280;11289;52.524;13.694;2023-12-22T00:51:12;97911.03;;;3.78;72.21
22241;BME280;11289;52.524;13.694;2023-12-22T00:53:38;97899.28;;;3.78;72.16
22241;BME280;11289;52.524;13.694;2023-12-22T00:56:04;97914.16;;;3.77;71.78
22241;BME280;11289;52.524;13.694;2023-12-22T00:58:30;97914.16;;;3.77;72.25
22241;BME280;11289;52.524;13.694;2023-12-22T01:00:56;97911.66;;;3.72;71.03
22241;BME280;11289;52.524;13.694;2023-12-22T01:03:22;97923.53;;;3.76;72.62
22241;BME280;11289;52.524;13.694;2023-12-22T01:05:48;97919.63;;;3.77;71.08
22241;BME280;11289;52.524;13.694;2023-12-22T01:08:14;97936.53;;;3.79;72.35
22241;BME280;11289;52.524;13.694;2023-12-22T01:10:40;97917.69;;;3.77;72.95
22241;BME280;11289;52.524;13.694;2023-12-22T01:13:06;97933.34;;;3.77;72.63
22241;BME280;11289;52.524;13.694;2023-12-22T01:15:32;97935.41;;;3.80;72.65
22241;BME280;11289;52.524;13.694;2023-12-22T01:17:57;97957.34;;;3.80;72.61
22241;BME280;11289;52.524;13.694;2023-12-22T01:20:24;97943.19;;;3.78;73.37
22241;BME280;11289;52.524;13.694;2023-12-22T01:22:50;97943.19;;;3.78;73.68
22241;BME280;11289;52.524;13.694;2023-12-22T01:25:17;97954.25;;;3.81;73.80
22241;BME280;11289;52.524;13.694;2023-12-22T01:27:42;97963.53;;;3.77;73.65
22241;BME280;11289;52.524;13.694;2023-12-22T01:30:08;97968.69;;;3.78;74.26
22241;BME280;11289;52.524;13.694;2023-12-22T01:32:34;97974.97;;;3.79;74.25
22241;BME280;11289;52.524;13.694;2023-12-22T01:35:02;97969.03;;;3.77;74.97
22241;BME280;11289;52.524;13.694;2023-12-22T01:37:32;97974.97;;;3.79;75.13
22241;BME280;11289;52.524;13.694;2023-12-22T01:39:58;97980.09;;;3.80;75.72
22241;BME280;11289;52.524;13.694;2023-12-22T01:42:24;97976.13;;;3.78;75.76
22241;BME280;11289;52.524;13.694;2023-12-22T01:44:50;97987.09;;;3.78;75.86
22241;BME280;11289;52.524;13.694;2023-12-22T01:47:16;97994.09;;;3.75;76.44
22241;BME280;11289;52.524;13.694;2023-12-22T01:49:42;97984.50;;;3.69;75.57
22241;BME280;11289;52.524;13.694;2023-12-22T01:52:09;97985.72;;;3.72;76.35
22241;BME280;11289;52.524;13.694;2023-12-22T01:54:35;97996.28;;;3.70;76.56
22241;BME280;11289;52.524;13.694;2023-12-22T01:57:01;98005.66;;;3.69;77.12
22241;BME280;11289;52.524;13.694;2023-12-22T01:59:28;97979.72;;;3.66;77.35
22241;BME280;11289;52.524;13.694;2023-12-22T02:01:56;97997.47;;;3.56;77.09
22241;BME280;11289;52.524;13.694;2023-12-22T02:04:23;97999.84;;;3.58;77.73
22241;BME280;11289;52.524;13.694;2023-12-22T02:06:50;97985.34;;;3.57;77.83
22241;BME280;11289;52.524;13.694;2023-12-22T02:09:16;97993.47;;;3.54;77.63
22241;BME280;11289;52.524;13.694;2023-12-22T02:11:42;97999.75;;;3.54;77.80
22241;BME280;11289;52.524;13.694;2023-12-22T02:14:08;97993.47;;;3.54;77.92
22241;BME280;11289;52.524;13.694;2023-12-22T02:22:04;97998.75;;;3.46;77.90
22241;BME280;11289;52.524;13.694;2023-12-22T02:24:30;98008.09;;;3.45;77.91
22241;BME280;11289;52.524;13.694;2023-12-22T02:29:31;98011.53;;;3.42;77.92
22241;BME280;11289;52.524;13.694;2023-12-22T02:31:58;98005.50;;;3.37;77.87
22241;BME280;11289;52.524;13.694;2023-12-22T02:34:26;98015.34;;;3.38;78.37
22241;BME280;11289;52.524;13.694;2023-12-22T02:36:54;98011.81;;;3.37;78.25
22241;BME280;11289;52.524;13.694;2023-12-22T02:39:20;98018.44;;;3.36;78.21
22241;BME280;11289;52.524;13.694;2023-12-22T02:41:46;98019.91;;;3.34;78.65
22241;BME280;11289;52.524;13.694;2023-12-22T02:44:12;98028.94;;;3.34;78.93
22241;BME280;11289;52.524;13.694;2023-12-22T02:46:38;98024.94;;;3.31;78.37
22241;BME280;11289;52.524;13.694;2023-12-22T02:49:06;98026.09;;;3.30;78.95
22241;BME280;11289;52.524;13.694;2023-12-22T02:51:32;98008.94;;;3.34;78.88
22241;BME280;11289;52.524;13.694;2023-12-22T02:53:58;98023.34;;;3.30;78.50
22241;BME280;11289;52.524;13.694;2023-12-22T02:56:24;98016.25;;;3.29;79.19
22241;BME280;11289;52.524;13.694;2023-12-22T02:58:49;98028.03;;;3.30;79.00
22241;BME280;11289;52.524;13.694;2023-12-22T03:01:15;98031.56;;;3.30;79.23
22241;BME280;11289;52.524;13.694;2023-12-22T03:03:41;98023.59;;;3.25;79.12
22241;BME280;11289;52.524;13.694;2023-12-22T03:06:07;98024.03;;;3.27;79.31
22241;BME280;11289;52.524;13.694;2023-12-22T03:08:33;98013.06;;;3.27;79.23
22241;BME280;11289;52.524;13.694;2023-12-22T03:10:59;98019.69;;;3.26;79.64
22241;BME280;11289;52.524;13.694;2023-12-22T03:13:25;98027.13;;;3.26;79.12
22241;BME280;11289;52.524;13.694;2023-12-22T03:15:51;98017.63;;;3.23;79.30
22241;BME280;11289;52.524;13.694;2023-12-22T03:18:17;98020.63;;;3.18;79.07
22241;BME280;11289;52.524;13.694;2023-12-22T03:20:43;98009.75;;;3.22;79.23
22241;BME280;11289;52.524;13.694;2023-12-22T03:23:09;98019.03;;;3.17;79.51
22241;BME280;11289;52.524;13.694;2023-12-22T03:25:35;98008.75;;;3.14;79.15
22241;BME280;11289;52.524;13.694;2023-12-22T03:28:01;98011.50;;;3.14;79.43
22241;BME280;11289;52.524;13.694;2023-12-22T03:30:27;98024.38;;;3.13;79.48
22241;BME280;11289;52.524;13.694;2023-12-22T03:32:53;97995.75;;;3.11;78.94
22241;BME280;11289;52.524;13.694;2023-12-22T03:35:18;98003.97;;;3.11;78.91
22241;BME280;11289;52.524;13.694;2023-12-22T03:37:44;97994.91;;;3.10;79.08
22241;BME280;11289;52.524;13.694;2023-12-22T03:40:11;98003.97;;;3.11;79.18
22241;BME280;11289;52.524;13.694;2023-12-22T03:42:37;98012.28;;;3.14;79.37
22241;BME280;11289;52.524;13.694;2023-12-22T03:45:03;98020.84;;;3.13;79.60
22241;BME280;11289;52.524;13.694;2023-12-22T03:47:29;98012.63;;;3.13;79.89
22241;BME280;11289;52.524;13.694;2023-12-22T03:49:55;98003.28;;;3.14;80.22
22241;BME280;11289;52.524;13.694;2023-12-22T03:52:21;98017.66;;;3.11;80.31
22241;BME280;11289;52.524;13.694;2023-12-22T03:54:47;98025.06;;;3.10;80.23
22241;BME280;11289;52.524;13.694;2023-12-22T03:57:13;98024.63;;;3.08;80.43
22241;BME280;11289;52.524;13.694;2023-12-22T03:59:38;98014.00;;;3.07;80.68
22241;BME280;11289;52.524;13.694;2023-12-22T04:02:05;98020.63;;;3.06;80.79
22241;BME280;11289;52.524;13.694;2023-12-22T04:04:31;98016.97;;;3.02;81.07
22241;BME280;11289;52.524;13.694;2023-12-22T04:06:57;98020.28;;;3.07;80.99
22241;BME280;11289;52.524;13.694;2023-12-22T04:09:23;98034.47;;;3.09;80.90
22241;BME280;11289;52.524;13.694;2023-12-22T04:11:49;98012.84;;;3.08;80.88
22241;BME280;11289;52.524;13.694;2023-12-22T04:14:15;98015.59;;;3.08;81.25
22241;BME280;11289;52.524;13.694;2023-12-22T04:16:42;98023.81;;;3.08;80.40
22241;BME280;11289;52.524;13.694;2023-12-22T04:19:08;98027.38;;;3.08;81.50
22241;BME280;11289;52.524;13.694;2023-12-22T04:21:34;98016.75;;;3.07;81.18
22241;BME280;11289;52.524;13.694;2023-12-22T04:23:59;98009.66;;;3.06;80.79
22241;BME280;11289;52.524;13.694;2023-12-22T04:26:25;98010.44;;;3.06;81.50
22241;BME280;11289;52.524;13.694;2023-12-22T04:28:51;98013.19;;;3.06;81.41
22241;BME280;11289;52.524;13.694;2023-12-22T04:31:17;98021.41;;;3.06;82.03
22241;BME280;11289;52.524;13.694;2023-12-22T04:33:43;98021.06;;;3.08;82.06
22241;BME280;11289;52.524;13.694;2023-12-22T04:36:09;98023.81;;;3.08;82.54
22241;BME280;11289;52.524;13.694;2023-12-22T04:38:35;98024.72;;;3.12;82.45
22241;BME280;11289;52.524;13.694;2023-12-22T04:41:01;98006.81;;;3.02;82.58
22241;BME280;11289;52.524;13.694;2023-12-22T04:43:27;98043.47;;;3.10;82.42
22241;BME280;11289;52.524;13.694;2023-12-22T04:45:53;98024.97;;;3.07;82.71
22241;BME280;11289;52.524;13.694;2023-12-22T04:48:19;98020.41;;;3.11;82.49
22241;BME280;11289;52.524;13.694;2023-12-22T04:50:45;98013.31;;;3.10;82.81
22241;BME280;11289;52.524;13.694;2023-12-22T04:53:11;98020.41;;;3.11;82.57
22241;BME280;11289;52.524;13.694;2023-12-22T04:55:37;98025.06;;;3.10;82.36
22241;BME280;11289;52.524;13.694;2023-12-22T04:58:03;98014.00;;;3.07;82.65
22241;BME280;11289;52.524;13.694;2023-12-22T05:00:29;98011.63;;;3.05;82.67
22241;BME280;11289;52.524;13.694;2023-12-22T05:02:55;98017.88;;;3.06;82.72
22241;BME280;11289;52.524;13.694;2023-12-22T05:05:21;98007.38;;;3.08;82.37
22241;BME280;11289;52.524;13.694;2023-12-22T05:07:47;98009.56;;;3.02;81.86
22241;BME280;11289;52.524;13.694;2023-12-22T05:10:13;97995.88;;;3.02;82.52
22241;BME280;11289;52.524;13.694;2023-12-22T05:12:39;98012.75;;;3.04;82.47
22241;BME280;11289;52.524;13.694;2023-12-22T05:15:05;98005.56;;;3.00;82.17
22241;BME280;11289;52.524;13.694;2023-12-22T05:17:31;97996.66;;;3.03;81.73
22241;BME280;11289;52.524;13.694;2023-12-22T05:19:58;98007.84;;;2.97;82.01
22241;BME280;11289;52.524;13.694;2023-12-22T05:22:24;98015.72;;;2.99;82.89
22241;BME280;11289;52.524;13.694;2023-12-22T05:24:50;98010.22;;;2.99;83.73
22241;BME280;11289;52.524;13.694;2023-12-22T05:27:16;98006.25;;;2.96;84.16
22241;BME280;11289;52.524;13.694;2023-12-22T05:29:42;98023.38;;;2.93;84.59
22241;BME280;11289;52.524;13.694;2023-12-22T05:32:08;98001.00;;;2.91;84.82
22241;BME280;11289;52.524;13.694;2023-12-22T05:34:34;98022.00;;;2.87;84.92
22241;BME280;11289;52.524;13.694;2023-12-22T05:37:00;98002.38;;;2.85;84.53
22241;BME280;11289;52.524;13.694;2023-12-22T05:39:25;98004.53;;;2.79;84.45
22241;BME280;11289;52.524;13.694;2023-12-22T05:41:51;98019.38;;;2.78;84.02
22241;BME280;11289;52.524;13.694;2023-12-22T05:44:17;98033.75;;;2.75;83.81
22241;BME280;11289;52.524;13.694;2023-12-22T05:46:43;98017.66;;;2.74;83.97
22241;BME280;11289;52.524;13.694;2023-12-22T05:49:09;98012.88;;;2.71;84.20
22241;BME280;11289;52.524;13.694;2023-12-22T05:51:37;98023.03;;;2.70;83.95
22241;BME280;11289;52.524;13.694;2023-12-22T05:54:04;98024.50;;;2.68;84.12
22241;BME280;11289;52.524;13.694;2023-12-22T05:56:30;98008.75;;;2.65;84.35
22241;BME280;11289;52.524;13.694;2023-12-22T05:58:56;98022.47;;;2.65;84.25
22241;BME280;11289;52.524;13.694;2023-12-22T06:01:22;98042.88;;;2.67;84.16
22241;BME280;11289;52.524;13.694;2023-12-22T06:03:48;98038.66;;;2.70;84.30
22241;BME280;11289;52.524;13.694;2023-12-22T06:06:14;98046.44;;;2.68;83.66
22241;BME280;11289;52.524;13.694;2023-12-22T06:08:40;98033.88;;;2.67;83.44
22241;BME280;11289;52.524;13.694;2023-12-22T06:11:06;98038.66;;;2.70;83.41
22241;BME280;11289;52.524;13.694;2023-12-22T06:13:32;98033.88;;;2.67;83.09
22241;BME280;11289;52.524;13.694;2023-12-22T06:15:58;98045.63;;;2.67;82.92
22241;BME280;11289;52.524;13.694;2023-12-22T06:18:24;98050.78;;;2.69;83.04
22241;BME280;11289;52.524;13.694;2023-12-22T06:20:50;98052.00;;;2.71;82.99
22241;BME280;11289;52.524;13.694;2023-12-22T06:23:16;98057.16;;;2.73;82.79
22241;BME280;11289;52.524;13.694;2023-12-22T06:25:42;98036.41;;;2.72;82.32
22241;BME280;11289;52.524;13.694;2023-12-22T06:28:08;98038.66;;;2.70;82.59
22241;BME280;11289;52.524;13.694;2023-12-22T06:30:34;98026.66;;;2.74;82.23
22241;BME280;11289;52.524;13.694;2023-12-22T06:33:01;98032.03;;;2.71;81.59
22241;BME280;11289;52.524;13.694;2023-12-22T06:35:27;98030.91;;;2.72;81.76
22241;BME280;11289;52.524;13.694;2023-12-22T06:37:53;98019.81;;;2.68;81.04
22241;BME280;11289;52.524;13.694;2023-12-22T06:40:20;98030.09;;;2.71;81.03
22241;BME280;11289;52.524;13.694;2023-12-22T06:42:46;98029.66;;;2.69;80.39
22241;BME280;11289;52.524;13.694;2023-12-22T06:45:12;98046.78;;;2.66;80.27
22241;BME280;11289;52.524;13.694;2023-12-22T06:47:38;98049.63;;;2.70;80.63
22241;BME280;11289;52.524;13.694;2023-12-22T06:50:04;98053.53;;;2.69;80.01
22241;BME280;11289;52.524;13.694;2023-12-22T06:52:30;98047.34;;;2.72;78.46
22241;BME280;11289;52.524;13.694;2023-12-22T06:54:56;98045.06;;;2.74;79.78
22241;BME280;11289;52.524;13.694;2023-12-22T06:57:22;98058.41;;;2.75;79.26
22241;BME280;11289;52.524;13.694;2023-12-22T06:59:48;98060.81;;;2.77;79.85
22241;BME280;11289;52.524;13.694;2023-12-22T07:02:15;98074.84;;;2.75;80.12
22241;BME280;11289;52.524;13.694;2023-12-22T07:04:41;98066.97;;;2.74;80.89
22241;BME280;11289;52.524;13.694;2023-12-22T07:07:07;98083.06;;;2.75;81.21
22241;BME280;11289;52.524;13.694;2023-12-22T07:09:33;98095.16;;;2.74;81.59
22241;BME280;11289;52.524;13.694;2023-12-22T07:11:59;98083.41;;;2.74;82.01
22241;BME280;11289;52.524;13.694;2023-12-22T07:14:24;98097.59;;;2.76;82.82
22241;BME280;11289;52.524;13.694;2023-12-22T07:16:51;98082.97;;;2.72;83.77
22241;BME280;11289;52.524;13.694;2023-12-22T07:19:17;98112.19;;;2.68;84.52
22241;BME280;11289;52.524;13.694;2023-12-22T07:21:43;98115.81;;;2.59;85.29
22241;BME280;11289;52.524;13.694;2023-12-22T07:24:08;98091.38;;;2.54;86.28
22241;BME280;11289;52.524;13.694;2023-12-22T07:26:34;98117.84;;;2.50;86.80
22241;BME280;11289;52.524;13.694;2023-12-22T07:29:00;98097.28;;;2.44;87.11
22241;BME280;11289;52.524;13.694;2023-12-22T07:31:26;98097.69;;;2.34;86.98
22241;BME280;11289;52.524;13.694;2023-12-22T07:33:52;98094.84;;;2.30;87.39
22241;BME280;11289;52.524;13.694;2023-12-22T07:36:18;98098.94;;;2.24;87.55
22241;BME280;11289;52.524;13.694;2023-12-22T07:38:44;98098.59;;;2.25;87.97
22241;BME280;11289;52.524;13.694;2023-12-22T07:41:10;98091.06;;;2.22;87.65
22241;BME280;11289;52.524;13.694;2023-12-22T07:43:36;98096.66;;;2.26;87.53
22241;BME280;11289;52.524;13.694;2023-12-22T07:46:02;98093.13;;;2.25;86.89
22241;BME280;11289;52.524;13.694;2023-12-22T07:48:28;98105.19;;;2.24;86.48
22241;BME280;11289;52.524;13.694;2023-12-22T07:50:54;98103.84;;;2.31;86.14
22241;BME280;11289;52.524;13.694;2023-12-22T07:53:20;98098.84;;;2.33;86.04
22241;BME280;11289;52.524;13.694;2023-12-22T07:55:46;98100.91;;;2.36;85.48
22241;BME280;11289;52.524;13.694;2023-12-22T07:58:13;98106.84;;;2.38;85.09
22241;BME280;11289;52.524;13.694;2023-12-22T08:00:39;98096.38;;;2.40;84.57
22241;BME280;11289;52.524;13.694;2023-12-22T08:03:05;98083.13;;;2.42;84.05
22241;BME280;11289;52.524;13.694;2023-12-22T08:05:31;98100.47;;;2.46;83.87
22241;BME280;11289;52.524;13.694;2023-12-22T08:07:59;98100.13;;;2.48;83.05
22241;BME280;11289;52.524;13.694;2023-12-22T08:10:25;98105.16;;;2.46;82.57
22241;BME280;11289;52.524;13.694;2023-12-22T08:12:53;98101.41;;;2.50;82.44
22241;BME280;11289;52.524;13.694;2023-12-22T08:15:19;98125.38;;;2.53;82.72
22241;BME280;11289;52.524;13.694;2023-12-22T08:17:51;98111.78;;;2.57;82.71
22241;BME280;11289;52.524;13.694;2023-12-22T08:20:21;98092.50;;;2.53;82.18
22241;BME280;11289;52.524;13.694;2023-12-22T08:22:48;98086.69;;;2.55;81.77
22241;BME280;11289;52.524;13.694;2023-12-22T08:25:14;98116.47;;;2.56;81.66
22241;BME280;11289;52.524;13.694;2023-12-22T08:27:41;98107.34;;;2.52;81.55
22241;BME280;11289;52.524;13.694;2023-12-22T08:30:08;98124.25;;;2.54;81.44
22241;BME280;11289;52.524;13.694;2023-12-22T08:32:34;98136.44;;;2.57;80.88
22241;BME280;11289;52.524;13.694;2023-12-22T08:35:00;98143.34;;;2.63;80.66
22241;BME280;11289;52.524;13.694;2023-12-22T08:37:26;98153.97;;;2.65;79.97
22241;BME280;11289;52.524;13.694;2023-12-22T08:39:52;98156.03;;;2.68;80.10
22241;BME280;11289;52.524;13.694;2023-12-22T08:42:18;98146.66;;;2.69;79.13
22241;BME280;11289;52.524;13.694;2023-12-22T08:44:44;98153.88;;;2.73;79.20
22241;BME280;11289;52.524;13.694;2023-12-22T08:47:10;98174.78;;;2.78;79.28
22241;BME280;11289;52.524;13.694;2023-12-22T08:49:36;98173.63;;;2.79;79.43
22241;BME280;11289;52.524;13.694;2023-12-22T08:52:02;98178.88;;;2.84;78.99
22241;BME280;11289;52.524;13.694;2023-12-22T08:54:30;98190.34;;;2.86;78.50
22241;BME280;11289;52.524;13.694;2023-12-22T08:56:56;98204.81;;;2.87;77.92
22241;BME280;11289;52.524;13.694;2023-12-22T08:59:22;98167.25;;;2.87;77.79
22241;BME280;11289;52.524;13.694;2023-12-22T09:01:48;98213.63;;;2.92;78.34
22241;BME280;11289;52.524;13.694;2023-12-22T09:04:14;98191.38;;;2.94;78.23
22241;BME280;11289;52.524;13.694;2023-12-22T09:06:41;98189.06;;;2.96;77.46
22241;BME280;11289;52.524;13.694;2023-12-22T09:09:08;98204.53;;;3.01;77.63
22241;BME280;11289;52.524;13.694;2023-12-22T09:11:35;98201.44;;;3.02;77.14
22241;BME280;11289;52.524;13.694;2023-12-22T09:14:01;98208.84;;;3.02;76.36
22241;BME280;11289;52.524;13.694;2023-12-22T09:16:27;98217.41;;;3.00;76.81
22241;BME280;11289;52.524;13.694;2023-12-22T09:18:53;98220.63;;;3.02;76.58
22241;BME280;11289;52.524;13.694;2023-12-22T09:21:19;98216.75;;;3.03;76.58
22241;BME280;11289;52.524;13.694;2023-12-22T09:23:46;98236.06;;;3.07;76.52
22241;BME280;11289;52.524;13.694;2023-12-22T09:26:13;98226.38;;;3.09;76.28
22241;BME280;11289;52.524;13.694;2023-12-22T09:28:40;98236.66;;;3.12;76.75
22241;BME280;11289;52.524;13.694;2023-12-22T09:31:09;98232.22;;;3.20;76.62
22241;BME280;11289;52.524;13.694;2023-12-22T09:33:35;98230.84;;;3.26;75.61
22241;BME280;11289;52.524;13.694;2023-12-22T09:36:01;98234.75;;;3.25;75.58
22241;BME280;11289;52.524;13.694;2023-12-22T09:38:28;98249.00;;;3.31;75.73
22241;BME280;11289;52.524;13.694;2023-12-22T09:40:55;98241.38;;;3.37;74.61
22241;BME280;11289;52.524;13.694;2023-12-22T09:43:21;98239.69;;;3.44;75.60
22241;BME280;11289;52.524;13.694;2023-12-22T09:45:51;98253.06;;;3.58;74.74
22241;BME280;11289;52.524;13.694;2023-12-22T09:48:17;98242.66;;;3.64;72.95
22241;BME280;11289;52.524;13.694;2023-12-22T09:50:46;98241.63;;;3.69;73.17
22241;BME280;11289;52.524;13.694;2023-12-22T09:53:13;98252.28;;;3.70;73.44
22241;BME280;11289;52.524;13.694;2023-12-22T09:55:44;98265.00;;;3.75;73.09
22241;BME280;11289;52.524;13.694;2023-12-22T09:58:13;98260.03;;;3.80;73.31
22241;BME280;11289;52.524;13.694;2023-12-22T10:00:40;98268.63;;;3.79;71.89
22241;BME280;11289;52.524;13.694;2023-12-22T10:03:07;98263.03;;;3.75;71.76
22241;BME280;11289;52.524;13.694;2023-12-22T10:05:33;98254.34;;;3.73;71.72
22241;BME280;11289;52.524;13.694;2023-12-22T10:08:00;98261.78;;;3.85;71.40
22241;BME280;11289;52.524;13.694;2023-12-22T10:10:28;98268.16;;;3.89;71.63
22241;BME280;11289;52.524;13.694;2023-12-22T10:12:58;98268.63;;;4.04;70.03
22241;BME280;11289;52.524;13.694;2023-12-22T10:15:25;98260.59;;;4.11;69.92
22241;BME280;11289;52.524;13.694;2023-12-22T10:17:53;98291.63;;;4.24;70.55
22241;BME280;11289;52.524;13.694;2023-12-22T10:20:19;98288.16;;;4.27;69.95
22241;BME280;11289;52.524;13.694;2023-12-22T10:22:45;98275.72;;;4.17;69.62
22241;BME280;11289;52.524;13.694;2023-12-22T10:25:15;98280.19;;;4.22;69.34
22241;BME280;11289;52.524;13.694;2023-12-22T10:27:42;98295.41;;;4.31;69.46
22241;BME280;11289;52.524;13.694;2023-12-22T10:30:09;98292.31;;;4.33;68.20
22241;BME280;11289;52.524;13.694;2023-12-22T10:32:40;98307.88;;;4.29;69.26
22241;BME280;11289;52.524;13.694;2023-12-22T10:35:07;98313.59;;;4.36;68.71
22241;BME280;11289;52.524;13.694;2023-12-22T10:37:33;98296.53;;;4.30;68.64
22241;BME280;11289;52.524;13.694;2023-12-22T10:39:59;98300.78;;;4.28;68.35
22241;BME280;11289;52.524;13.694;2023-12-22T10:42:25;98307.28;;;4.35;69.05
22241;BME280;11289;52.524;13.694;2023-12-22T10:44:51;98313.69;;;4.40;67.76
22241;BME280;11289;52.524;13.694;2023-12-22T10:47:19;98306.81;;;4.46;67.52
22241;BME280;11289;52.524;13.694;2023-12-22T10:49:46;98300.44;;;4.42;67.69
22241;BME280;11289;52.524;13.694;2023-12-22T10:52:19;98315.75;;;4.43;66.52
22241;BME280;11289;52.524;13.694;2023-12-22T10:54:48;98306.13;;;4.49;66.04
22241;BME280;11289;52.524;13.694;2023-12-22T10:57:17;98301.88;;;4.51;66.50
22241;BME280;11289;52.524;13.694;2023-12-22T10:59:47;98315.38;;;4.57;66.88
22241;BME280;11289;52.524;13.694;2023-12-22T11:02:17;98308.50;;;4.63;65.99
22241;BME280;11289;52.524;13.694;2023-12-22T11:07:26;98314.53;;;4.81;64.86
22241;BME280;11289;52.524;13.694;2023-12-22T11:09:56;98318.66;;;4.75;65.57
22241;BME280;11289;52.524;13.694;2023-12-22T11:12:23;98317.88;;;4.74;66.24
22241;BME280;11289;52.524;13.694;2023-12-22T11:14:53;98305.47;;;4.80;65.88
22241;BME280;11289;52.524;13.694;2023-12-22T11:17:21;98330.34;;;4.84;65.37
22241;BME280;11289;52.524;13.694;2023-12-22T11:19:49;98295.72;;;4.95;65.13
22241;BME280;11289;52.524;13.694;2023-12-22T11:22:17;98328.72;;;4.95;64.18
22241;BME280;11289;52.524;13.694;2023-12-22T11:24:48;98313.13;;;4.87;64.77
22241;BME280;11289;52.524;13.694;2023-12-22T11:27:18;98317.78;;;4.99;65.31
22241;BME280;11289;52.524;13.694;2023-12-22T11:29:49;98298.69;;;4.90;63.73
22241;BME280;11289;52.524;13.694;2023-12-22T11:32:16;98307.63;;;4.87;64.37
22241;BME280;11289;52.524;13.694;2023-12-22T11:34:43;98304.41;;;4.85;63.13
22241;BME280;11289;52.524;13.694;2023-12-22T11:37:14;98306.03;;;4.86;64.34
22241;BME280;11289;52.524;13.694;2023-12-22T11:39:43;98309.84;;;4.81;63.39
22241;BME280;11289;52.524;13.694;2023-12-22T11:42:18;98282.00;;;4.83;63.38
22241;BME280;11289;52.524;13.694;2023-12-22T11:44:45;98292.44;;;4.77;64.00
22241;BME280;11289;52.524;13.694;2023-12-22T11:47:13;98301.38;;;4.74;63.38
22241;BME280;11289;52.524;13.694;2023-12-22T11:49:40;98292.19;;;4.82;64.25
22241;BME280;11289;52.524;13.694;2023-12-22T11:52:11;98304.88;;;4.87;63.70
22241;BME280;11289;52.524;13.694;2023-12-22T11:54:44;98302.38;;;4.82;63.17
22241;BME280;11289;52.524;13.694;2023-12-22T11:57:39;98292.00;;;4.75;63.46
22241;BME280;11289;52.524;13.694;2023-12-22T12:02:57;98292.13;;;4.66;63.69
22241;BME280;11289;52.524;13.694;2023-12-22T12:05:23;98312.50;;;4.65;63.81
22241;BME280;11289;52.524;13.694;2023-12-22T12:07:49;98301.06;;;4.63;63.87
22241;BME280;11289;52.524;13.694;2023-12-22T12:13:05;98299.59;;;4.53;64.31
22241;BME280;11289;52.524;13.694;2023-12-22T12:15:33;98313.69;;;4.52;64.34
22241;BME280;11289;52.524;13.694;2023-12-22T12:18:00;98325.94;;;4.55;64.81
22241;BME280;11289;52.524;13.694;2023-12-22T12:20:26;98328.22;;;4.52;64.29
22241;BME280;11289;52.524;13.694;2023-12-22T12:22:53;98314.81;;;4.51;64.39
22241;BME280;11289;52.524;13.694;2023-12-22T12:25:22;98334.06;;;4.51;65.06
22241;BME280;11289;52.524;13.694;2023-12-22T12:28:12;98328.56;;;4.51;64.34
22241;BME280;11289;52.524;13.694;2023-12-22T12:30:38;98334.06;;;4.51;65.54
22241;BME280;11289;52.524;13.694;2023-12-22T12:33:12;98325.72;;;4.47;64.96
22241;BME280;11289;52.524;13.694;2023-12-22T12:35:38;98356.72;;;4.48;64.80
22241;BME280;11289;52.524;13.694;2023-12-22T12:38:05;98325.16;;;4.42;64.39
22241;BME280;11289;52.524;13.694;2023-12-22T12:40:32;98353.41;;;4.42;64.38
22241;BME280;11289;52.524;13.694;2023-12-22T12:43:00;98336.34;;;4.36;63.74
22241;BME280;11289;52.524;13.694;2023-12-22T12:45:26;98337.50;;;4.35;64.04
22241;BME280;11289;52.524;13.694;2023-12-22T12:48:02;98349.53;;;4.31;64.83
22241;BME280;11289;52.524;13.694;2023-12-22T12:50:29;98342.91;;;4.32;64.95
22241;BME280;11289;52.524;13.694;2023-12-22T12:52:56;98340.00;;;4.28;65.35
22241;BME280;11289;52.524;13.694;2023-12-22T12:55:23;98339.34;;;4.31;65.94
22241;BME280;11289;52.524;13.694;2023-12-22T12:57:53;98339.34;;;4.31;66.05
22241;BME280;11289;52.524;13.694;2023-12-22T13:00:31;98335.44;;;4.32;65.41
22241;BME280;11289;52.524;13.694;2023-12-22T13:03:06;98332.34;;;4.34;65.62
22241;BME280;11289;52.524;13.694;2023-12-22T13:05:33;98342.53;;;4.33;63.90
22241;BME280;11289;52.524;13.694;2023-12-22T13:08:09;98337.41;;;4.32;65.45
22241;BME280;11289;52.524;13.694;2023-12-22T13:10:36;98336.13;;;4.29;65.14
22241;BME280;11289;52.524;13.694;2023-12-22T13:13:02;98330.97;;;4.28;64.76